sensor_id;sensor_type;location;lat;lon;timestamp;P1;durP1;ratioP1;P2;durP2;ratioP2
1382;SDS011;685;47.196;11.880;2023-05-08T00:01:40;3.73;;;2.40;;
1382;SDS011;685;47.196;11.880;2023-05-08T00:04:08;3.50;;;2.50;;
1382;SDS011;685;47.196;11.880;2023-05-08T00:06:35;3.70;;;2.67;;
1382;SDS011;685;47.196;11.880;2023-05-08T00:09:02;2.97;;;2.40;;
1382;SDS011;685;47.196;11.880;2023-05-08T00:11:30;3.97;;;1.93;;
1382;SDS011;685;47.196;11.880;2023-05-08T00:13:56;2.23;;;2.03;;
1382;SDS011;685;47.196;11.880;2023-05-08T00:16:23;2.47;;;2.27;;
1382;SDS011;685;47.196;11.880;2023-05-08T00:18:50;3.83;;;2.27;;
1382;SDS011;685;47.196;11.880;2023-05-08T00:21:19;2.70;;;2.37;;
1382;SDS011;685;47.196;11.880;2023-05-08T00:23:46;3.53;;;2.70;;
1382;SDS011;685;47.196;11.880;2023-05-08T00:26:13;3.57;;;2.70;;
1382;SDS011;685;47.196;11.880;2023-05-08T00:28:40;4.10;;;2.67;;
1382;SDS011;685;47.196;11.880;2023-05-08T00:31:07;3.10;;;2.40;;
1382;SDS011;685;47.196;11.880;2023-05-08T00:33:34;3.07;;;2.80;;
1382;SDS011;685;47.196;11.880;2023-05-08T00:36:01;2.97;;;2.67;;
1382;SDS011;685;47.196;11.880;2023-05-08T00:38:30;4.10;;;2.27;;
1382;SDS011;685;47.196;11.880;2023-05-08T00:40:57;2.97;;;2.40;;
1382;SDS011;685;47.196;11.880;2023-05-08T00:43:24;2.63;;;2.00;;
1382;SDS011;685;47.196;11.880;2023-05-08T00:45:52;2.87;;;2.40;;
1382;SDS011;685;47.196;11.880;2023-05-08T00:48:20;2.83;;;2.57;;
1382;SDS011;685;47.196;11.880;2023-05-08T00:50:48;2.57;;;2.30;;
1382;SDS011;685;47.196;11.880;2023-05-08T00:53:16;2.67;;;1.80;;
1382;SDS011;685;47.196;11.880;2023-05-08T00:55:46;5.27;;;1.67;;
1382;SDS011;685;47.196;11.880;2023-05-08T00:58:14;2.50;;;2.17;;
1382;SDS011;685;47.196;11.880;2023-05-08T01:00:41;3.07;;;2.13;;
1382;SDS011;685;47.196;11.880;2023-05-08T01:03:09;2.30;;;1.80;;
1382;SDS011;685;47.196;11.880;2023-05-08T01:05:38;4.23;;;2.10;;
1382;SDS011;685;47.196;11.880;2023-05-08T01:08:05;2.03;;;1.83;;
1382;SDS011;685;47.196;11.880;2023-05-08T01:10:35;3.77;;;1.67;;
1382;SDS011;685;47.196;11.880;2023-05-08T01:13:13;3.00;;;1.60;;
1382;SDS011;685;47.196;11.880;2023-05-08T01:15:50;2.10;;;1.80;;
1382;SDS011;685;47.196;11.880;2023-05-08T01:18:25;2.60;;;1.87;;
1382;SDS011;685;47.196;11.880;2023-05-08T01:21:00;2.53;;;1.70;;
1382;SDS011;685;47.196;11.880;2023-05-08T01:26:28;3.00;;;1.70;;
1382;SDS011;685;47.196;11.880;2023-05-08T01:32:14;2.03;;;1.60;;
1382;SDS011;685;47.196;11.880;2023-05-08T01:34:46;2.40;;;1.67;;
1382;SDS011;685;47.196;11.880;2023-05-08T01:37:20;1.87;;;1.30;;
1382;SDS011;685;47.196;11.880;2023-05-08T01:39:56;2.87;;;2.00;;
1382;SDS011;685;47.196;11.880;2023-05-08T01:42:33;2.50;;;1.47;;
1382;SDS011;685;47.196;11.880;2023-05-08T01:45:16;2.67;;;2.07;;
1382;SDS011;685;47.196;11.880;2023-05-08T01:47:50;2.83;;;2.53;;
1382;SDS011;685;47.196;11.880;2023-05-08T01:50:29;2.13;;;1.87;;
1382;SDS011;685;47.196;11.880;2023-05-08T01:53:01;5.10;;;2.17;;
1382;SDS011;685;47.196;11.880;2023-05-08T01:55:33;5.23;;;2.23;;
1382;SDS011;685;47.196;11.880;2023-05-08T01:58:03;3.87;;;1.93;;
1382;SDS011;685;47.196;11.880;2023-05-08T02:00:34;2.77;;;1.83;;
1382;SDS011;685;47.196;11.880;2023-05-08T02:03:06;3.50;;;2.07;;
1382;SDS011;685;47.196;11.880;2023-05-08T02:05:35;2.40;;;2.00;;
1382;SDS011;685;47.196;11.880;2023-05-08T02:08:03;2.73;;;2.10;;
1382;SDS011;685;47.196;11.880;2023-05-08T02:10:32;4.60;;;2.20;;
1382;SDS011;685;47.196;11.880;2023-05-08T02:12:59;5.93;;;2.17;;
1382;SDS011;685;47.196;11.880;2023-05-08T02:15:29;2.90;;;1.83;;
1382;SDS011;685;47.196;11.880;2023-05-08T02:18:00;2.13;;;1.63;;
1382;SDS011;685;47.196;11.880;2023-05-08T02:20:30;3.40;;;2.30;;
1382;SDS011;685;47.196;11.880;2023-05-08T02:22:57;2.53;;;1.97;;
1382;SDS011;685;47.196;11.880;2023-05-08T02:25:26;2.03;;;1.43;;
1382;SDS011;685;47.196;11.880;2023-05-08T02:27:54;2.70;;;1.57;;
1382;SDS011;685;47.196;11.880;2023-05-08T02:30:23;3.80;;;2.40;;
1382;SDS011;685;47.196;11.880;2023-05-08T02:32:51;2.13;;;1.80;;
1382;SDS011;685;47.196;11.880;2023-05-08T02:35:20;2.53;;;2.10;;
1382;SDS011;685;47.196;11.880;2023-05-08T02:37:51;3.70;;;2.00;;
1382;SDS011;685;47.196;11.880;2023-05-08T02:40:21;2.13;;;1.63;;
1382;SDS011;685;47.196;11.880;2023-05-08T02:42:50;2.93;;;1.70;;
1382;SDS011;685;47.196;11.880;2023-05-08T02:45:17;3.10;;;2.20;;
1382;SDS011;685;47.196;11.880;2023-05-08T02:47:46;2.50;;;2.10;;
1382;SDS011;685;47.196;11.880;2023-05-08T02:50:19;1.87;;;1.57;;
1382;SDS011;685;47.196;11.880;2023-05-08T02:52:55;2.50;;;1.50;;
1382;SDS011;685;47.196;11.880;2023-05-08T02:55:31;3.90;;;1.53;;
1382;SDS011;685;47.196;11.880;2023-05-08T02:58:06;1.83;;;1.57;;
1382;SDS011;685;47.196;11.880;2023-05-08T03:00:41;3.00;;;2.10;;
1382;SDS011;685;47.196;11.880;2023-05-08T03:03:13;2.87;;;2.03;;
1382;SDS011;685;47.196;11.880;2023-05-08T03:05:46;2.20;;;2.00;;
1382;SDS011;685;47.196;11.880;2023-05-08T03:08:19;4.33;;;1.50;;
1382;SDS011;685;47.196;11.880;2023-05-08T03:10:51;3.57;;;1.70;;
1382;SDS011;685;47.196;11.880;2023-05-08T03:13:22;2.57;;;1.70;;
1382;SDS011;685;47.196;11.880;2023-05-08T03:15:51;4.90;;;2.60;;
1382;SDS011;685;47.196;11.880;2023-05-08T03:18:22;2.20;;;2.00;;
1382;SDS011;685;47.196;11.880;2023-05-08T03:20:53;3.30;;;2.10;;
1382;SDS011;685;47.196;11.880;2023-05-08T03:23:22;2.90;;;2.33;;
1382;SDS011;685;47.196;11.880;2023-05-08T03:25:52;3.30;;;2.10;;
1382;SDS011;685;47.196;11.880;2023-05-08T03:28:22;5.23;;;2.73;;
1382;SDS011;685;47.196;11.880;2023-05-08T03:30:51;2.40;;;1.80;;
1382;SDS011;685;47.196;11.880;2023-05-08T03:33:19;4.23;;;3.07;;
1382;SDS011;685;47.196;11.880;2023-05-08T03:35:48;3.03;;;2.27;;
1382;SDS011;685;47.196;11.880;2023-05-08T03:38:16;3.73;;;2.93;;
1382;SDS011;685;47.196;11.880;2023-05-08T03:40:45;2.53;;;2.30;;
1382;SDS011;685;47.196;11.880;2023-05-08T03:43:13;2.80;;;2.50;;
1382;SDS011;685;47.196;11.880;2023-05-08T03:45:42;3.50;;;2.53;;
1382;SDS011;685;47.196;11.880;2023-05-08T03:48:10;3.90;;;2.50;;
1382;SDS011;685;47.196;11.880;2023-05-08T03:50:38;2.57;;;2.37;;
1382;SDS011;685;47.196;11.880;2023-05-08T03:53:05;2.50;;;2.20;;
1382;SDS011;685;47.196;11.880;2023-05-08T03:55:32;2.60;;;2.40;;
1382;SDS011;685;47.196;11.880;2023-05-08T03:58:02;3.70;;;2.50;;
1382;SDS011;685;47.196;11.880;2023-05-08T04:00:36;2.60;;;2.40;;
1382;SDS011;685;47.196;11.880;2023-05-08T04:03:18;2.20;;;2.00;;
1382;SDS011;685;47.196;11.880;2023-05-08T04:05:50;5.20;;;2.40;;
1382;SDS011;685;47.196;11.880;2023-05-08T04:08:24;3.43;;;2.20;;
1382;SDS011;685;47.196;11.880;2023-05-08T04:10:56;4.30;;;2.57;;
1382;SDS011;685;47.196;11.880;2023-05-08T04:13:31;3.43;;;2.63;;
1382;SDS011;685;47.196;11.880;2023-05-08T04:16:06;5.43;;;3.40;;
1382;SDS011;685;47.196;11.880;2023-05-08T04:18:41;3.60;;;3.27;;
1382;SDS011;685;47.196;11.880;2023-05-08T04:21:14;5.77;;;3.70;;
1382;SDS011;685;47.196;11.880;2023-05-08T04:23:45;3.50;;;3.20;;
1382;SDS011;685;47.196;11.880;2023-05-08T04:26:14;3.17;;;2.87;;
1382;SDS011;685;47.196;11.880;2023-05-08T04:28:44;4.47;;;3.60;;
1382;SDS011;685;47.196;11.880;2023-05-08T04:31:12;4.23;;;3.80;;
1382;SDS011;685;47.196;11.880;2023-05-08T04:33:39;6.20;;;3.70;;
1382;SDS011;685;47.196;11.880;2023-05-08T04:36:09;3.57;;;3.00;;
1382;SDS011;685;47.196;11.880;2023-05-08T04:38:37;5.80;;;3.63;;
1382;SDS011;685;47.196;11.880;2023-05-08T04:41:04;4.00;;;3.70;;
1382;SDS011;685;47.196;11.880;2023-05-08T04:43:31;4.90;;;3.77;;
1382;SDS011;685;47.196;11.880;2023-05-08T04:45:59;3.60;;;3.30;;
1382;SDS011;685;47.196;11.880;2023-05-08T04:48:26;3.37;;;3.07;;
1382;SDS011;685;47.196;11.880;2023-05-08T04:50:55;3.87;;;3.43;;
1382;SDS011;685;47.196;11.880;2023-05-08T04:53:22;3.97;;;3.60;;
1382;SDS011;685;47.196;11.880;2023-05-08T04:55:49;4.83;;;4.00;;
1382;SDS011;685;47.196;11.880;2023-05-08T04:58:16;5.10;;;3.70;;
1382;SDS011;685;47.196;11.880;2023-05-08T05:00:43;5.70;;;3.93;;
1382;SDS011;685;47.196;11.880;2023-05-08T05:03:11;5.60;;;5.00;;
1382;SDS011;685;47.196;11.880;2023-05-08T05:05:38;4.73;;;4.23;;
1382;SDS011;685;47.196;11.880;2023-05-08T05:08:05;4.20;;;3.83;;
1382;SDS011;685;47.196;11.880;2023-05-08T05:10:32;4.40;;;4.00;;
1382;SDS011;685;47.196;11.880;2023-05-08T05:12:59;4.33;;;3.93;;
1382;SDS011;685;47.196;11.880;2023-05-08T05:15:26;4.20;;;3.80;;
1382;SDS011;685;47.196;11.880;2023-05-08T05:17:52;4.93;;;4.53;;
1382;SDS011;685;47.196;11.880;2023-05-08T05:20:21;7.17;;;4.20;;
1382;SDS011;685;47.196;11.880;2023-05-08T05:22:48;3.40;;;3.10;;
1382;SDS011;685;47.196;11.880;2023-05-08T05:25:15;4.00;;;3.30;;
1382;SDS011;685;47.196;11.880;2023-05-08T05:27:42;4.93;;;3.30;;
1382;SDS011;685;47.196;11.880;2023-05-08T05:30:09;3.60;;;3.30;;
1382;SDS011;685;47.196;11.880;2023-05-08T05:32:36;3.40;;;3.00;;
1382;SDS011;685;47.196;11.880;2023-05-08T05:35:03;2.87;;;2.60;;
1382;SDS011;685;47.196;11.880;2023-05-08T05:37:32;3.73;;;2.87;;
1382;SDS011;685;47.196;11.880;2023-05-08T05:39:59;3.03;;;2.80;;
1382;SDS011;685;47.196;11.880;2023-05-08T05:42:26;3.17;;;2.87;;
1382;SDS011;685;47.196;11.880;2023-05-08T05:44:53;4.20;;;3.00;;
1382;SDS011;685;47.196;11.880;2023-05-08T05:47:21;3.27;;;2.80;;
1382;SDS011;685;47.196;11.880;2023-05-08T05:49:48;2.90;;;2.70;;
1382;SDS011;685;47.196;11.880;2023-05-08T05:52:14;3.40;;;3.10;;
1382;SDS011;685;47.196;11.880;2023-05-08T05:54:43;4.20;;;3.50;;
1382;SDS011;685;47.196;11.880;2023-05-08T05:57:10;4.13;;;3.53;;
1382;SDS011;685;47.196;11.880;2023-05-08T05:59:38;3.03;;;2.73;;
1382;SDS011;685;47.196;11.880;2023-05-08T06:02:05;3.97;;;3.60;;
1382;SDS011;685;47.196;11.880;2023-05-08T06:04:34;4.80;;;4.03;;
1382;SDS011;685;47.196;11.880;2023-05-08T06:07:01;4.07;;;3.50;;
1382;SDS011;685;47.196;11.880;2023-05-08T06:09:28;4.53;;;3.60;;
1382;SDS011;685;47.196;11.880;2023-05-08T06:11:56;4.33;;;3.93;;
1382;SDS011;685;47.196;11.880;2023-05-08T06:14:23;4.47;;;3.93;;
1382;SDS011;685;47.196;11.880;2023-05-08T06:16:50;3.80;;;3.40;;
1382;SDS011;685;47.196;11.880;2023-05-08T06:19:17;3.67;;;3.00;;
1382;SDS011;685;47.196;11.880;2023-05-08T06:21:44;4.57;;;2.90;;
1382;SDS011;685;47.196;11.880;2023-05-08T06:24:11;3.50;;;3.20;;
1382;SDS011;685;47.196;11.880;2023-05-08T06:26:37;3.50;;;2.80;;
1382;SDS011;685;47.196;11.880;2023-05-08T06:29:07;3.40;;;3.03;;
1382;SDS011;685;47.196;11.880;2023-05-08T06:31:33;3.70;;;3.23;;
1382;SDS011;685;47.196;11.880;2023-05-08T06:34:00;5.40;;;3.00;;
1382;SDS011;685;47.196;11.880;2023-05-08T06:36:27;3.37;;;3.07;;
1382;SDS011;685;47.196;11.880;2023-05-08T06:38:54;3.33;;;3.00;;
1382;SDS011;685;47.196;11.880;2023-05-08T06:41:21;8.30;;;2.57;;
1382;SDS011;685;47.196;11.880;2023-05-08T06:43:48;6.20;;;2.90;;
1382;SDS011;685;47.196;11.880;2023-05-08T06:46:16;2.73;;;2.40;;
1382;SDS011;685;47.196;11.880;2023-05-08T06:48:43;2.90;;;2.60;;
1382;SDS011;685;47.196;11.880;2023-05-08T06:51:10;3.10;;;2.40;;
1382;SDS011;685;47.196;11.880;2023-05-08T06:53:37;2.53;;;2.20;;
1382;SDS011;685;47.196;11.880;2023-05-08T06:56:04;2.80;;;2.60;;
1382;SDS011;685;47.196;11.880;2023-05-08T06:58:32;2.50;;;2.30;;
1382;SDS011;685;47.196;11.880;2023-05-08T07:00:59;3.40;;;2.47;;
1382;SDS011;685;47.196;11.880;2023-05-08T07:03:28;3.40;;;2.30;;
1382;SDS011;685;47.196;11.880;2023-05-08T07:05:55;5.63;;;2.17;;
1382;SDS011;685;47.196;11.880;2023-05-08T07:08:22;2.57;;;2.00;;
1382;SDS011;685;47.196;11.880;2023-05-08T07:10:49;2.47;;;2.00;;
1382;SDS011;685;47.196;11.880;2023-05-08T07:13:16;2.43;;;2.13;;
1382;SDS011;685;47.196;11.880;2023-05-08T07:15:46;2.57;;;2.27;;
1382;SDS011;685;47.196;11.880;2023-05-08T07:18:12;3.23;;;2.80;;
1382;SDS011;685;47.196;11.880;2023-05-08T07:20:41;4.77;;;3.10;;
1382;SDS011;685;47.196;11.880;2023-05-08T07:23:08;3.43;;;3.13;;
1382;SDS011;685;47.196;11.880;2023-05-08T07:25:35;3.30;;;3.00;;
1382;SDS011;685;47.196;11.880;2023-05-08T07:28:02;4.00;;;3.00;;
1382;SDS011;685;47.196;11.880;2023-05-08T07:30:29;4.73;;;3.33;;
1382;SDS011;685;47.196;11.880;2023-05-08T07:32:56;3.50;;;2.70;;
1382;SDS011;685;47.196;11.880;2023-05-08T07:35:23;3.67;;;3.27;;
1382;SDS011;685;47.196;11.880;2023-05-08T07:37:51;3.10;;;2.80;;
1382;SDS011;685;47.196;11.880;2023-05-08T07:40:18;3.60;;;3.30;;
1382;SDS011;685;47.196;11.880;2023-05-08T07:42:45;4.40;;;4.00;;
1382;SDS011;685;47.196;11.880;2023-05-08T07:45:12;2.53;;;2.33;;
1382;SDS011;685;47.196;11.880;2023-05-08T07:47:47;4.70;;;3.00;;
1382;SDS011;685;47.196;11.880;2023-05-08T07:50:14;4.30;;;3.20;;
1382;SDS011;685;47.196;11.880;2023-05-08T07:52:41;2.90;;;2.53;;
1382;SDS011;685;47.196;11.880;2023-05-08T07:55:10;2.63;;;2.43;;
1382;SDS011;685;47.196;11.880;2023-05-08T07:57:38;2.50;;;2.17;;
1382;SDS011;685;47.196;11.880;2023-05-08T08:00:07;2.83;;;2.20;;
1382;SDS011;685;47.196;11.880;2023-05-08T08:02:36;2.70;;;1.97;;
1382;SDS011;685;47.196;11.880;2023-05-08T08:05:03;3.77;;;2.77;;
1382;SDS011;685;47.196;11.880;2023-05-08T08:07:30;3.20;;;2.23;;
1382;SDS011;685;47.196;11.880;2023-05-08T08:09:57;2.20;;;2.00;;
1382;SDS011;685;47.196;11.880;2023-05-08T08:12:26;3.80;;;2.07;;
1382;SDS011;685;47.196;11.880;2023-05-08T08:14:53;2.30;;;2.03;;
1382;SDS011;685;47.196;11.880;2023-05-08T08:17:20;2.67;;;2.10;;
1382;SDS011;685;47.196;11.880;2023-05-08T08:19:47;2.63;;;1.97;;
1382;SDS011;685;47.196;11.880;2023-05-08T08:22:14;2.47;;;2.27;;
1382;SDS011;685;47.196;11.880;2023-05-08T08:24:41;4.43;;;2.47;;
1382;SDS011;685;47.196;11.880;2023-05-08T08:27:08;3.30;;;1.97;;
1382;SDS011;685;47.196;11.880;2023-05-08T08:29:36;3.67;;;2.10;;
1382;SDS011;685;47.196;11.880;2023-05-08T08:32:03;3.00;;;2.40;;
1382;SDS011;685;47.196;11.880;2023-05-08T08:34:31;2.60;;;2.23;;
1382;SDS011;685;47.196;11.880;2023-05-08T08:36:58;2.07;;;1.87;;
1382;SDS011;685;47.196;11.880;2023-05-08T08:39:25;3.20;;;1.97;;
1382;SDS011;685;47.196;11.880;2023-05-08T08:41:52;2.63;;;2.10;;
1382;SDS011;685;47.196;11.880;2023-05-08T08:44:20;2.43;;;2.23;;
1382;SDS011;685;47.196;11.880;2023-05-08T08:46:50;2.70;;;2.33;;
1382;SDS011;685;47.196;11.880;2023-05-08T08:49:18;3.00;;;2.43;;
1382;SDS011;685;47.196;11.880;2023-05-08T08:51:50;3.60;;;2.40;;
1382;SDS011;685;47.196;11.880;2023-05-08T08:54:20;2.97;;;2.67;;
1382;SDS011;685;47.196;11.880;2023-05-08T08:56:49;2.10;;;1.80;;
1382;SDS011;685;47.196;11.880;2023-05-08T08:59:17;3.20;;;2.37;;
1382;SDS011;685;47.196;11.880;2023-05-08T09:01:46;2.70;;;2.50;;
1382;SDS011;685;47.196;11.880;2023-05-08T09:04:16;2.70;;;2.50;;
1382;SDS011;685;47.196;11.880;2023-05-08T09:06:43;3.07;;;2.60;;
1382;SDS011;685;47.196;11.880;2023-05-08T09:09:11;3.03;;;2.73;;
1382;SDS011;685;47.196;11.880;2023-05-08T09:11:38;3.67;;;2.93;;
1382;SDS011;685;47.196;11.880;2023-05-08T09:14:06;4.10;;;3.70;;
1382;SDS011;685;47.196;11.880;2023-05-08T09:16:33;3.43;;;3.20;;
1382;SDS011;685;47.196;11.880;2023-05-08T09:19:00;3.50;;;2.97;;
1382;SDS011;685;47.196;11.880;2023-05-08T09:21:29;3.77;;;3.40;;
1382;SDS011;685;47.196;11.880;2023-05-08T09:23:58;2.97;;;2.53;;
1382;SDS011;685;47.196;11.880;2023-05-08T09:26:26;2.97;;;2.70;;
1382;SDS011;685;47.196;11.880;2023-05-08T09:29:08;2.60;;;2.40;;
1382;SDS011;685;47.196;11.880;2023-05-08T09:31:40;5.83;;;3.10;;
1382;SDS011;685;47.196;11.880;2023-05-08T09:34:08;3.07;;;2.77;;
1382;SDS011;685;47.196;11.880;2023-05-08T09:36:37;2.97;;;2.17;;
1382;SDS011;685;47.196;11.880;2023-05-08T09:39:08;2.60;;;2.40;;
1382;SDS011;685;47.196;11.880;2023-05-08T09:41:36;2.07;;;1.83;;
1382;SDS011;685;47.196;11.880;2023-05-08T09:44:04;2.43;;;2.23;;
1382;SDS011;685;47.196;11.880;2023-05-08T09:46:32;3.67;;;2.47;;
1382;SDS011;685;47.196;11.880;2023-05-08T09:49:00;2.60;;;2.03;;
1382;SDS011;685;47.196;11.880;2023-05-08T09:51:28;3.40;;;2.73;;
1382;SDS011;685;47.196;11.880;2023-05-08T09:53:58;3.07;;;2.40;;
1382;SDS011;685;47.196;11.880;2023-05-08T09:56:34;2.60;;;2.17;;
1382;SDS011;685;47.196;11.880;2023-05-08T09:59:02;2.67;;;2.13;;
1382;SDS011;685;47.196;11.880;2023-05-08T10:01:31;2.30;;;1.93;;
1382;SDS011;685;47.196;11.880;2023-05-08T10:03:58;3.07;;;2.67;;
1382;SDS011;685;47.196;11.880;2023-05-08T10:06:26;3.13;;;2.80;;
1382;SDS011;685;47.196;11.880;2023-05-08T10:09:08;3.10;;;2.30;;
1382;SDS011;685;47.196;11.880;2023-05-08T10:11:38;2.80;;;2.50;;
1382;SDS011;685;47.196;11.880;2023-05-08T10:14:05;2.77;;;2.33;;
1382;SDS011;685;47.196;11.880;2023-05-08T10:16:35;2.97;;;2.37;;
1382;SDS011;685;47.196;11.880;2023-05-08T10:19:07;2.70;;;2.50;;
1382;SDS011;685;47.196;11.880;2023-05-08T10:21:39;2.60;;;1.90;;
1382;SDS011;685;47.196;11.880;2023-05-08T10:24:12;2.73;;;2.23;;
1382;SDS011;685;47.196;11.880;2023-05-08T10:26:42;2.60;;;2.20;;
1382;SDS011;685;47.196;11.880;2023-05-08T10:29:16;2.20;;;2.00;;
1382;SDS011;685;47.196;11.880;2023-05-08T10:31:46;2.70;;;2.40;;
1382;SDS011;685;47.196;11.880;2023-05-08T10:34:19;2.80;;;2.13;;
1382;SDS011;685;47.196;11.880;2023-05-08T10:36:49;3.90;;;2.17;;
1382;SDS011;685;47.196;11.880;2023-05-08T10:39:18;2.77;;;2.23;;
1382;SDS011;685;47.196;11.880;2023-05-08T10:41:47;2.47;;;2.27;;
1382;SDS011;685;47.196;11.880;2023-05-08T10:44:15;2.87;;;2.30;;
1382;SDS011;685;47.196;11.880;2023-05-08T10:46:45;2.63;;;2.43;;
1382;SDS011;685;47.196;11.880;2023-05-08T10:49:19;3.07;;;2.60;;
1382;SDS011;685;47.196;11.880;2023-05-08T10:51:52;3.90;;;3.00;;
1382;SDS011;685;47.196;11.880;2023-05-08T10:54:33;3.20;;;2.80;;
1382;SDS011;685;47.196;11.880;2023-05-08T10:57:07;2.60;;;2.40;;
1382;SDS011;685;47.196;11.880;2023-05-08T10:59:35;3.83;;;3.40;;
1382;SDS011;685;47.196;11.880;2023-05-08T11:02:03;3.20;;;2.90;;
1382;SDS011;685;47.196;11.880;2023-05-08T11:04:31;2.50;;;2.30;;
1382;SDS011;685;47.196;11.880;2023-05-08T11:06:59;3.70;;;2.60;;
1382;SDS011;685;47.196;11.880;2023-05-08T11:09:29;2.87;;;2.60;;
1382;SDS011;685;47.196;11.880;2023-05-08T11:12:16;2.70;;;2.50;;
1382;SDS011;685;47.196;11.880;2023-05-08T11:14:52;2.83;;;2.57;;
1382;SDS011;685;47.196;11.880;2023-05-08T11:17:22;3.57;;;3.20;;
1382;SDS011;685;47.196;11.880;2023-05-08T11:19:53;3.20;;;2.90;;
1382;SDS011;685;47.196;11.880;2023-05-08T11:22:25;2.90;;;2.47;;
1382;SDS011;685;47.196;11.880;2023-05-08T11:24:56;3.20;;;2.87;;
1382;SDS011;685;47.196;11.880;2023-05-08T11:27:31;9.33;;;4.00;;
1382;SDS011;685;47.196;11.880;2023-05-08T11:30:35;4.50;;;3.70;;
1382;SDS011;685;47.196;11.880;2023-05-08T11:35:54;3.50;;;3.20;;
1382;SDS011;685;47.196;11.880;2023-05-08T11:38:23;4.30;;;3.40;;
1382;SDS011;685;47.196;11.880;2023-05-08T11:41:00;3.33;;;3.03;;
1382;SDS011;685;47.196;11.880;2023-05-08T11:43:43;4.40;;;3.97;;
1382;SDS011;685;47.196;11.880;2023-05-08T11:46:29;6.80;;;5.77;;
1382;SDS011;685;47.196;11.880;2023-05-08T11:49:01;4.90;;;4.43;;
1382;SDS011;685;47.196;11.880;2023-05-08T11:51:29;5.90;;;5.30;;
1382;SDS011;685;47.196;11.880;2023-05-08T11:53:57;5.63;;;4.17;;
1382;SDS011;685;47.196;11.880;2023-05-08T11:56:25;5.40;;;4.90;;
1382;SDS011;685;47.196;11.880;2023-05-08T11:59:00;5.83;;;4.23;;
1382;SDS011;685;47.196;11.880;2023-05-08T12:01:29;6.40;;;5.80;;
1382;SDS011;685;47.196;11.880;2023-05-08T12:04:00;5.43;;;4.83;;
1382;SDS011;685;47.196;11.880;2023-05-08T12:06:28;5.00;;;4.50;;
1382;SDS011;685;47.196;11.880;2023-05-08T12:08:56;3.87;;;3.50;;
1382;SDS011;685;47.196;11.880;2023-05-08T12:11:23;4.23;;;3.67;;
1382;SDS011;685;47.196;11.880;2023-05-08T12:13:52;5.60;;;5.03;;
1382;SDS011;685;47.196;11.880;2023-05-08T12:16:21;5.20;;;4.70;;
1382;SDS011;685;47.196;11.880;2023-05-08T12:18:48;6.47;;;4.73;;
1382;SDS011;685;47.196;11.880;2023-05-08T12:21:16;7.03;;;6.33;;
1382;SDS011;685;47.196;11.880;2023-05-08T12:23:43;5.13;;;4.53;;
1382;SDS011;685;47.196;11.880;2023-05-08T12:26:10;6.70;;;4.70;;
1382;SDS011;685;47.196;11.880;2023-05-08T12:28:39;5.07;;;4.53;;
1382;SDS011;685;47.196;11.880;2023-05-08T12:31:09;5.90;;;4.93;;
1382;SDS011;685;47.196;11.880;2023-05-08T12:33:36;5.27;;;4.77;;
1382;SDS011;685;47.196;11.880;2023-05-08T12:36:04;6.63;;;5.23;;
1382;SDS011;685;47.196;11.880;2023-05-08T12:38:31;4.80;;;4.30;;
1382;SDS011;685;47.196;11.880;2023-05-08T12:40:59;5.87;;;5.03;;
1382;SDS011;685;47.196;11.880;2023-05-08T12:43:31;4.13;;;3.67;;
1382;SDS011;685;47.196;11.880;2023-05-08T12:46:00;5.30;;;4.50;;
1382;SDS011;685;47.196;11.880;2023-05-08T12:48:28;5.10;;;4.60;;
1382;SDS011;685;47.196;11.880;2023-05-08T12:50:59;6.50;;;5.30;;
1382;SDS011;685;47.196;11.880;2023-05-08T12:53:28;5.87;;;5.27;;
1382;SDS011;685;47.196;11.880;2023-05-08T12:55:57;5.47;;;4.50;;
1382;SDS011;685;47.196;11.880;2023-05-08T12:58:27;5.77;;;5.20;;
1382;SDS011;685;47.196;11.880;2023-05-08T13:01:03;5.23;;;4.73;;
1382;SDS011;685;47.196;11.880;2023-05-08T13:03:34;5.73;;;5.10;;
1382;SDS011;685;47.196;11.880;2023-05-08T13:06:01;5.60;;;5.10;;
1382;SDS011;685;47.196;11.880;2023-05-08T13:08:29;6.57;;;5.00;;
1382;SDS011;685;47.196;11.880;2023-05-08T13:10:57;6.60;;;5.03;;
1382;SDS011;685;47.196;11.880;2023-05-08T13:13:25;6.77;;;6.17;;
1382;SDS011;685;47.196;11.880;2023-05-08T13:15:53;5.27;;;4.83;;
1382;SDS011;685;47.196;11.880;2023-05-08T13:18:22;6.33;;;5.73;;
1382;SDS011;685;47.196;11.880;2023-05-08T13:20:51;4.93;;;4.47;;
1382;SDS011;685;47.196;11.880;2023-05-08T13:23:18;7.00;;;6.00;;
1382;SDS011;685;47.196;11.880;2023-05-08T13:25:45;7.80;;;6.57;;
1382;SDS011;685;47.196;11.880;2023-05-08T13:28:12;7.90;;;5.97;;
1382;SDS011;685;47.196;11.880;2023-05-08T13:30:39;6.57;;;5.97;;
1382;SDS011;685;47.196;11.880;2023-05-08T13:33:06;6.33;;;5.60;;
1382;SDS011;685;47.196;11.880;2023-05-08T13:35:34;6.23;;;5.60;;
1382;SDS011;685;47.196;11.880;2023-05-08T13:38:01;8.73;;;6.30;;
1382;SDS011;685;47.196;11.880;2023-05-08T13:40:28;6.83;;;6.13;;
1382;SDS011;685;47.196;11.880;2023-05-08T13:42:55;7.60;;;5.90;;
1382;SDS011;685;47.196;11.880;2023-05-08T13:45:22;8.57;;;6.33;;
1382;SDS011;685;47.196;11.880;2023-05-08T13:47:49;7.27;;;6.43;;
1382;SDS011;685;47.196;11.880;2023-05-08T13:50:16;5.73;;;5.17;;
1382;SDS011;685;47.196;11.880;2023-05-08T13:52:47;6.30;;;5.70;;
1382;SDS011;685;47.196;11.880;2023-05-08T13:55:14;7.53;;;5.70;;
1382;SDS011;685;47.196;11.880;2023-05-08T13:57:41;8.57;;;6.90;;
1382;SDS011;685;47.196;11.880;2023-05-08T14:00:08;6.63;;;5.77;;
1382;SDS011;685;47.196;11.880;2023-05-08T14:02:36;7.07;;;6.37;;
1382;SDS011;685;47.196;11.880;2023-05-08T14:05:03;6.73;;;5.97;;
1382;SDS011;685;47.196;11.880;2023-05-08T14:07:32;8.03;;;7.30;;
1382;SDS011;685;47.196;11.880;2023-05-08T14:10:00;8.23;;;7.43;;
1382;SDS011;685;47.196;11.880;2023-05-08T14:12:27;8.37;;;7.57;;
1382;SDS011;685;47.196;11.880;2023-05-08T14:14:54;8.23;;;7.43;;
1382;SDS011;685;47.196;11.880;2023-05-08T14:17:21;7.13;;;6.43;;
1382;SDS011;685;47.196;11.880;2023-05-08T14:19:48;7.47;;;6.77;;
1382;SDS011;685;47.196;11.880;2023-05-08T14:22:15;7.60;;;6.83;;
1382;SDS011;685;47.196;11.880;2023-05-08T14:24:42;8.33;;;7.37;;
1382;SDS011;685;47.196;11.880;2023-05-08T14:27:10;8.20;;;7.40;;
1382;SDS011;685;47.196;11.880;2023-05-08T14:29:37;8.10;;;7.00;;
1382;SDS011;685;47.196;11.880;2023-05-08T14:32:05;8.97;;;7.80;;
1382;SDS011;685;47.196;11.880;2023-05-08T14:34:33;11.17;;;8.57;;
1382;SDS011;685;47.196;11.880;2023-05-08T14:37:00;8.00;;;7.20;;
1382;SDS011;685;47.196;11.880;2023-05-08T14:39:27;8.27;;;7.33;;
1382;SDS011;685;47.196;11.880;2023-05-08T14:41:54;10.13;;;7.37;;
1382;SDS011;685;47.196;11.880;2023-05-08T14:44:22;7.63;;;6.83;;
1382;SDS011;685;47.196;11.880;2023-05-08T14:46:49;8.23;;;7.20;;
1382;SDS011;685;47.196;11.880;2023-05-08T14:49:16;8.33;;;7.43;;
1382;SDS011;685;47.196;11.880;2023-05-08T14:51:43;9.20;;;8.30;;
1382;SDS011;685;47.196;11.880;2023-05-08T14:54:10;8.80;;;7.87;;
1382;SDS011;685;47.196;11.880;2023-05-08T14:56:36;9.10;;;8.33;;
1382;SDS011;685;47.196;11.880;2023-05-08T14:59:03;10.03;;;7.70;;
1382;SDS011;685;47.196;11.880;2023-05-08T15:01:32;9.53;;;8.47;;
1382;SDS011;685;47.196;11.880;2023-05-08T15:03:59;10.20;;;7.97;;
1382;SDS011;685;47.196;11.880;2023-05-08T15:06:25;8.30;;;7.60;;
1382;SDS011;685;47.196;11.880;2023-05-08T15:08:55;8.30;;;7.50;;
1382;SDS011;685;47.196;11.880;2023-05-08T15:11:21;9.33;;;7.63;;
1382;SDS011;685;47.196;11.880;2023-05-08T15:13:48;9.43;;;7.47;;
1382;SDS011;685;47.196;11.880;2023-05-08T15:16:15;9.10;;;7.50;;
1382;SDS011;685;47.196;11.880;2023-05-08T15:18:43;9.70;;;8.80;;
1382;SDS011;685;47.196;11.880;2023-05-08T15:21:10;12.73;;;10.47;;
1382;SDS011;685;47.196;11.880;2023-05-08T15:23:37;16.20;;;14.60;;
1382;SDS011;685;47.196;11.880;2023-05-08T15:26:04;12.40;;;11.10;;
1382;SDS011;685;47.196;11.880;2023-05-08T15:28:32;13.30;;;10.73;;
1382;SDS011;685;47.196;11.880;2023-05-08T15:30:59;11.43;;;9.83;;
1382;SDS011;685;47.196;11.880;2023-05-08T15:33:28;13.27;;;11.90;;
1382;SDS011;685;47.196;11.880;2023-05-08T15:35:56;11.30;;;10.10;;